Pagina principale
METAR-TAF:

METAR-TAF

Aeroporti :

Flessinga, Paesi Bassi

latitudine: 51-27N, longitudine: 3-36E, altezza: 10 m

Osservazione

Il bollettino è stato emesso 42 minuti fa, alle 10:55 UTC
Vento 28 kt da ovest
Temperature 6°C
Umidità 70%
Pressione 994 hPa
Visibilità 10 km o più

METAR: EHFS 281055Z AUTO 28028KT 9999 FEW023/// SCT026/// BKN040/// 06/01 Q0994

Ora: 12:37 (11:37 UTC)


TAF: mancante

Osservazioni e previsioni meteorologiche di più di 4000 aeroporti (messaggi METAR e TAF).

Le stazioni disponibili sono rappresentate dai dischi gialli e rossi sulla carta.

Puntare il mouse per vedere il nome della stazione.

Clicca sopra per visualizzare le osservazioni e previsioni meteorologiche.

Per cambiare la mappa : fare clic sui pulsanti verdi con una croce nera per ingrandire, il pulsante verde con un trattino per diminuire, o sulla freccia verde per le mappe adiacenti.


METAR-TAF: